Time;durP1;ratioP1;P1;durP2;ratioP2;P2;SDS_P1;SDS_P2;PMS_P1;PMS_P2;Temp;Humidity;BMP_temperature;BMP_pressure;BME280_temperature;BME280_humidity;BME280_pressure;Samples;Min_cycle;Max_cycle;Signal;HPM_P1;HPM_P2
2022/07/11 00:02:08;;;;;;;3.60;2.67;;;19.80;99.90;;;;;;5037337;28;20453;-78
2022/07/11 00:04:35;;;;;;;3.40;2.43;;;19.80;99.90;;;;;;5037499;28;20418;-78
2022/07/11 00:07:02;;;;;;;6.30;3.00;;;19.80;99.90;;;;;;5037204;28;20509;-77
2022/07/11 00:09:28;;;;;;;3.60;2.50;;;19.80;99.90;;;;;;5043937;28;20422;-79
2022/07/11 00:11:54;;;;;;;6.90;3.50;;;19.70;99.90;;;;;;5046354;28;20519;-79
2022/07/11 00:14:21;;;;;;;9.20;3.00;;;19.80;99.90;;;;;;5046641;28;20931;-78
2022/07/11 00:16:48;;;;;;;6.83;2.90;;;19.80;99.90;;;;;;5045867;28;20437;-79
2022/07/11 00:19:13;;;;;;;5.40;3.10;;;19.80;99.90;;;;;;5045394;28;20449;-78
2022/07/11 00:21:39;;;;;;;9.13;4.20;;;19.80;99.90;;;;;;5045988;28;20422;-79
2022/07/11 00:24:07;;;;;;;5.63;2.50;;;19.80;99.90;;;;;;5045461;28;20639;-79
2022/07/11 00:26:37;;;;;;;6.70;3.43;;;19.70;99.90;;;;;;5044161;28;20183;-79
2022/07/11 00:29:06;;;;;;;4.20;3.00;;;19.80;99.90;;;;;;5044309;28;20465;-79
2022/07/11 00:31:32;;;;;;;6.27;3.27;;;19.80;99.90;;;;;;5043328;28;20826;-79
2022/07/11 00:33:59;;;;;;;5.43;3.33;;;19.70;99.90;;;;;;5043029;28;20426;-78
2022/07/11 00:36:25;;;;;;;5.40;3.47;;;19.70;99.90;;;;;;5042268;28;20426;-78
2022/07/11 00:38:51;;;;;;;6.77;3.50;;;19.70;99.90;;;;;;5043140;28;20831;-79
2022/07/11 00:41:17;;;;;;;6.00;3.77;;;19.70;99.90;;;;;;5042651;28;20191;-79
2022/07/11 00:43:43;;;;;;;4.67;2.83;;;19.70;99.90;;;;;;5042557;28;20187;-79
2022/07/11 00:46:09;;;;;;;5.40;3.53;;;19.70;99.90;;;;;;5041726;28;20484;-77
2022/07/11 00:48:36;;;;;;;6.00;3.53;;;19.70;99.90;;;;;;5041642;28;21067;-79
2022/07/11 00:51:03;;;;;;;6.30;3.37;;;19.60;99.90;;;;;;5040923;28;20839;-79
2022/07/11 00:53:30;;;;;;;4.50;3.23;;;19.60;99.90;;;;;;5041176;28;20445;-78
2022/07/11 00:55:56;;;;;;;7.23;3.67;;;19.60;99.90;;;;;;5040431;28;20428;-78
2022/07/11 00:58:23;;;;;;;5.40;3.53;;;19.60;99.90;;;;;;5040575;28;20440;-79
2022/07/11 01:00:49;;;;;;;6.80;3.60;;;19.60;99.90;;;;;;5040742;28;20942;-77
2022/07/11 01:03:15;;;;;;;9.00;4.37;;;19.50;99.90;;;;;;5039990;28;20422;-78
2022/07/11 01:05:41;;;;;;;7.10;3.20;;;19.50;99.90;;;;;;5039501;28;20457;-77
2022/07/11 01:08:07;;;;;;;6.27;3.77;;;19.50;99.90;;;;;;5039875;28;20211;-78
2022/07/11 01:10:33;;;;;;;6.93;3.40;;;19.40;99.90;;;;;;5039756;28;20584;-79
2022/07/11 01:12:59;;;;;;;4.87;3.10;;;19.40;99.90;;;;;;5039004;28;20434;-79
2022/07/11 01:15:25;;;;;;;9.23;3.77;;;19.40;99.90;;;;;;5039292;28;20430;-78
2022/07/11 01:17:52;;;;;;;6.47;4.07;;;19.40;99.90;;;;;;5037805;28;20496;-77
2022/07/11 01:20:19;;;;;;;5.20;3.70;;;19.40;99.90;;;;;;5038388;28;20180;-79
2022/07/11 01:22:51;;;;;;;6.70;4.30;;;19.40;99.90;;;;;;5038141;28;20864;-77
2022/07/11 01:25:30;;;;;;;11.60;3.80;;;19.30;99.90;;;;;;5038169;28;20442;-78
2022/07/11 01:28:00;;;;;;;5.90;3.50;;;19.30;99.90;;;;;;5037993;28;20446;-78
2022/07/11 01:30:27;;;;;;;4.70;3.40;;;19.30;99.90;;;;;;5038058;28;20470;-77
2022/07/11 01:32:54;;;;;;;6.47;4.37;;;19.30;99.90;;;;;;5038003;28;20422;-78
2022/07/11 01:35:20;;;;;;;6.30;3.60;;;19.30;99.90;;;;;;5037415;28;20521;-78
2022/07/11 01:37:47;;;;;;;4.77;3.60;;;19.30;99.90;;;;;;5037568;28;20521;-78
2022/07/11 01:40:16;;;;;;;9.47;4.20;;;19.20;99.90;;;;;;5037537;28;20438;-77
2022/07/11 01:42:42;;;;;;;9.33;3.50;;;19.20;99.90;;;;;;5036038;28;20517;-77
2022/07/11 01:45:12;;;;;;;5.83;3.70;;;19.10;99.90;;;;;;5035442;28;20521;-77
2022/07/11 01:47:39;;;;;;;7.93;3.53;;;19.10;99.90;;;;;;5034115;28;20442;-77
2022/07/11 01:50:06;;;;;;;6.13;3.90;;;19.10;99.90;;;;;;5035404;28;20422;-77
2022/07/11 01:52:31;;;;;;;7.13;4.50;;;19.00;99.90;;;;;;5035088;28;20774;-78
2022/07/11 01:54:57;;;;;;;6.80;3.87;;;18.90;99.90;;;;;;5035114;28;20504;-77
2022/07/11 01:57:23;;;;;;;5.43;3.57;;;18.80;99.90;;;;;;5035011;28;20196;-77
2022/07/11 01:59:49;;;;;;;4.50;3.77;;;18.70;99.90;;;;;;5035133;28;20184;-77
2022/07/11 02:02:15;;;;;;;11.43;4.03;;;18.70;99.90;;;;;;5035044;28;20684;-77
2022/07/11 02:04:41;;;;;;;6.00;4.13;;;18.60;99.90;;;;;;5034855;28;20184;-78
2022/07/11 02:07:07;;;;;;;5.80;4.20;;;18.60;99.90;;;;;;5034730;28;20453;-77
2022/07/11 02:09:33;;;;;;;10.10;4.60;;;18.50;99.90;;;;;;5034924;28;20418;-77
2022/07/11 02:11:59;;;;;;;5.73;4.00;;;18.40;99.90;;;;;;5034914;28;20476;-78
2022/07/11 02:14:25;;;;;;;7.63;4.30;;;18.40;99.90;;;;;;5034735;28;20425;-78
2022/07/11 02:16:51;;;;;;;9.33;4.50;;;18.30;99.90;;;;;;5034611;28;20257;-78
2022/07/11 02:19:16;;;;;;;6.23;4.30;;;18.20;99.90;;;;;;5034618;28;20244;-78
2022/07/11 02:21:42;;;;;;;8.87;4.70;;;18.20;99.90;;;;;;5034751;28;20681;-78
2022/07/11 02:24:09;;;;;;;5.80;4.20;;;18.10;99.90;;;;;;5034574;28;20188;-78
2022/07/11 02:26:35;;;;;;;7.40;3.83;;;18.10;99.90;;;;;;5034592;28;20458;-77
2022/07/11 02:29:01;;;;;;;6.03;4.47;;;18.10;99.90;;;;;;5034895;28;20492;-77
2022/07/11 02:31:27;;;;;;;7.77;4.77;;;18.00;99.90;;;;;;5034465;28;20556;-77
2022/07/11 02:33:53;;;;;;;5.53;3.87;;;18.00;99.90;;;;;;5034526;28;20517;-78
2022/07/11 02:36:19;;;;;;;9.13;4.23;;;17.90;99.90;;;;;;5034127;28;20278;-77
2022/07/11 02:38:44;;;;;;;6.70;4.70;;;17.90;99.90;;;;;;5034494;28;20199;-77
2022/07/11 02:41:10;;;;;;;5.60;4.23;;;17.80;99.90;;;;;;5034664;28;20432;-80
2022/07/11 02:43:36;;;;;;;6.73;4.60;;;17.80;99.90;;;;;;5034253;28;20202;-80
2022/07/11 02:46:02;;;;;;;5.77;4.67;;;17.80;99.90;;;;;;5034227;28;20622;-79
2022/07/11 02:48:28;;;;;;;5.80;4.70;;;17.80;99.90;;;;;;5033874;28;20207;-80
2022/07/11 02:50:53;;;;;;;7.03;4.47;;;17.70;99.90;;;;;;5034076;28;20211;-79
2022/07/11 02:53:19;;;;;;;6.70;4.37;;;17.70;99.90;;;;;;5034233;28;20179;-80
2022/07/11 02:55:45;;;;;;;8.53;4.97;;;17.60;99.90;;;;;;5033877;28;20184;-80
2022/07/11 02:58:11;;;;;;;6.93;4.10;;;17.60;99.90;;;;;;5041861;28;20242;-81
2022/07/11 03:00:37;;;;;;;7.53;4.53;;;17.60;99.90;;;;;;5043785;28;20187;-81
2022/07/11 03:03:03;;;;;;;7.73;4.70;;;17.50;99.90;;;;;;5043401;28;20190;-81
2022/07/11 03:05:29;;;;;;;8.70;4.93;;;17.50;99.90;;;;;;5042657;28;20481;-81
2022/07/11 03:07:55;;;;;;;6.23;4.43;;;17.50;99.90;;;;;;5042490;28;20206;-81
2022/07/11 03:10:23;;;;;;;7.43;4.30;;;17.50;99.90;;;;;;5042071;28;20462;-81
2022/07/11 03:12:49;;;;;;;8.30;4.90;;;17.40;99.90;;;;;;5041904;28;20179;-82
2022/07/11 03:15:16;;;;;;;7.07;4.60;;;17.40;99.90;;;;;;5025411;28;20480;-80
2022/07/11 03:17:42;;;;;;;7.47;4.70;;;17.30;99.90;;;;;;5040839;28;20884;-78
2022/07/11 03:20:09;;;;;;;6.23;4.33;;;17.20;99.90;;;;;;5040971;28;20453;-82
2022/07/11 03:22:35;;;;;;;6.50;4.20;;;17.20;99.90;;;;;;5041142;28;20215;-80
2022/07/11 03:25:05;;;;;;;10.37;4.27;;;17.20;99.90;;;;;;5040768;28;20791;-80
2022/07/11 03:27:31;;;;;;;11.60;5.20;;;17.20;99.90;;;;;;5039745;28;20949;-80
2022/07/11 03:29:57;;;;;;;6.80;5.23;;;17.10;99.90;;;;;;5040529;28;20418;-81
2022/07/11 03:32:23;;;;;;;7.40;5.23;;;17.00;99.90;;;;;;5038985;28;20422;-80
2022/07/11 03:37:33;;;;;;;7.43;5.43;;;16.90;99.90;;;;;;5057152;28;20420;-80
2022/07/11 03:39:59;;;;;;;7.17;5.13;;;16.90;99.90;;;;;;5038813;28;20414;-80
2022/07/11 03:42:26;;;;;;;6.17;4.87;;;16.90;99.90;;;;;;5038494;28;20668;-79
2022/07/11 03:44:52;;;;;;;7.57;5.03;;;16.90;99.90;;;;;;5038272;28;20441;-81
2022/07/11 03:47:18;;;;;;;8.17;4.93;;;16.90;99.90;;;;;;5037174;28;20434;-80
2022/07/11 03:49:44;;;;;;;6.30;5.50;;;17.00;99.90;;;;;;5038173;28;20646;-80
2022/07/11 03:52:10;;;;;;;8.80;6.03;;;17.00;99.90;;;;;;5037921;28;20473;-81
2022/07/11 03:54:36;;;;;;;7.77;5.37;;;17.00;99.90;;;;;;5037867;28;20414;-81
2022/07/11 03:57:02;;;;;;;11.63;4.90;;;16.90;99.90;;;;;;5037168;28;20549;-80
2022/07/11 03:59:28;;;;;;;6.93;5.33;;;17.00;99.90;;;;;;5036806;28;20175;-80
2022/07/11 04:01:54;;;;;;;9.40;5.23;;;17.00;99.90;;;;;;5036199;28;20452;-80
2022/07/11 04:04:19;;;;;;;7.50;4.80;;;17.00;99.90;;;;;;5036741;28;20180;-80
2022/07/11 04:06:45;;;;;;;7.50;5.00;;;17.00;99.90;;;;;;5034035;22;20702;-76
2022/07/11 04:09:11;;;;;;;6.73;5.10;;;16.90;99.90;;;;;;5013416;28;20264;-76
2022/07/11 04:11:37;;;;;;;12.60;5.10;;;17.00;99.90;;;;;;5014866;28;20204;-77
2022/07/11 04:14:02;;;;;;;6.30;5.13;;;16.90;99.90;;;;;;5016904;28;20647;-76
2022/07/11 04:16:28;;;;;;;7.20;5.30;;;17.00;99.90;;;;;;5016455;28;20564;-76
2022/07/11 04:18:54;;;;;;;8.03;4.73;;;17.10;99.90;;;;;;5016702;28;20235;-77
2022/07/11 04:21:20;;;;;;;9.00;5.57;;;17.10;99.90;;;;;;5016940;28;20185;-76
2022/07/11 04:23:45;;;;;;;8.97;5.40;;;17.20;99.90;;;;;;5016987;28;20180;-76
2022/07/11 04:26:11;;;;;;;8.23;5.60;;;17.30;99.90;;;;;;5016389;28;20176;-76
2022/07/11 04:28:37;;;;;;;8.90;5.57;;;17.40;99.90;;;;;;5016585;28;20200;-76
2022/07/11 04:31:03;;;;;;;10.17;6.23;;;17.50;99.90;;;;;;5016347;28;20808;-76
2022/07/11 04:33:29;;;;;;;8.97;5.27;;;17.60;99.90;;;;;;5016593;28;20558;-76
2022/07/11 04:35:55;;;;;;;5.47;4.80;;;17.70;99.90;;;;;;5016246;28;20187;-76
2022/07/11 04:38:23;;;;;;;5.83;5.20;;;17.70;99.90;;;;;;5016421;28;20671;-76
2022/07/11 04:40:50;;;;;;;7.00;4.50;;;17.90;99.90;;;;;;5016413;28;20435;-76
2022/07/11 04:43:16;;;;;;;7.77;5.17;;;17.80;99.90;;;;;;5016488;28;20426;-76
2022/07/11 04:45:41;;;;;;;10.00;5.00;;;17.90;99.90;;;;;;5015933;28;20424;-77
2022/07/11 04:48:07;;;;;;;6.13;5.30;;;17.90;99.90;;;;;;5016193;28;20435;-76
2022/07/11 04:50:33;;;;;;;6.47;4.80;;;18.00;99.90;;;;;;5016039;28;20212;-76
2022/07/11 04:52:59;;;;;;;10.80;5.90;;;18.00;99.90;;;;;;5016198;28;20293;-76
2022/07/11 04:55:25;;;;;;;7.83;5.07;;;18.00;99.90;;;;;;5016052;28;20181;-76
2022/07/11 04:57:51;;;;;;;8.37;5.43;;;18.10;99.90;;;;;;5015770;28;20641;-77
2022/07/11 05:00:17;;;;;;;7.57;5.10;;;18.00;99.90;;;;;;5016157;28;20250;-77
2022/07/11 05:02:43;;;;;;;7.07;5.37;;;18.00;99.90;;;;;;5016031;28;20765;-76
2022/07/11 05:05:09;;;;;;;5.50;4.50;;;18.10;99.90;;;;;;5015721;28;20416;-76
2022/07/11 05:07:35;;;;;;;7.00;4.40;;;18.10;99.90;;;;;;5015640;28;20246;-76
2022/07/11 05:10:02;;;;;;;9.50;5.10;;;18.20;99.90;;;;;;5015834;28;20415;-77
2022/07/11 05:12:28;;;;;;;5.93;5.10;;;18.30;99.90;;;;;;5015723;28;20530;-76
2022/07/11 05:14:55;;;;;;;6.63;5.00;;;18.30;99.90;;;;;;5015623;28;20526;-76
2022/07/11 05:17:21;;;;;;;6.10;5.00;;;18.40;99.90;;;;;;5015430;28;20237;-77
2022/07/11 05:19:46;;;;;;;6.33;4.90;;;18.40;99.90;;;;;;5015626;28;20423;-76
2022/07/11 05:22:12;;;;;;;6.63;4.97;;;18.50;99.90;;;;;;5015022;28;20655;-76
2022/07/11 05:24:38;;;;;;;7.30;4.70;;;18.50;99.90;;;;;;5014972;28;20208;-76
2022/07/11 05:27:04;;;;;;;6.20;4.70;;;18.50;99.90;;;;;;5015100;28;20200;-76
2022/07/11 05:29:29;;;;;;;7.13;4.17;;;18.50;99.90;;;;;;5015443;28;20268;-76
2022/07/11 05:31:55;;;;;;;10.73;5.17;;;18.60;99.90;;;;;;5015557;28;20463;-77
2022/07/11 05:34:21;;;;;;;9.20;4.80;;;18.60;99.90;;;;;;5015528;28;20207;-76
2022/07/11 05:36:47;;;;;;;6.60;3.90;;;18.60;99.90;;;;;;5015087;28;20694;-76
2022/07/11 05:39:13;;;;;;;7.10;4.60;;;18.60;99.90;;;;;;5015550;28;20229;-76
2022/07/11 05:41:39;;;;;;;6.50;4.80;;;18.60;99.90;;;;;;5015153;28;20899;-77
2022/07/11 05:44:04;;;;;;;6.20;4.70;;;18.70;99.90;;;;;;5015224;28;20473;-77
2022/07/11 05:46:30;;;;;;;4.77;3.80;;;18.70;99.90;;;;;;5014793;28;20690;-76
2022/07/11 05:48:56;;;;;;;7.53;4.80;;;18.80;99.90;;;;;;5015078;28;20207;-77
2022/07/11 05:51:22;;;;;;;7.70;4.10;;;18.80;99.90;;;;;;5015001;28;20208;-77
2022/07/11 05:53:47;;;;;;;9.53;3.90;;;18.80;99.90;;;;;;5015130;28;20184;-76
2022/07/11 05:56:13;;;;;;;5.83;3.80;;;18.90;99.90;;;;;;5014751;28;20277;-76
2022/07/11 05:58:39;;;;;;;6.27;3.80;;;18.90;99.90;;;;;;5014856;28;20258;-76
2022/07/11 06:01:05;;;;;;;6.80;4.07;;;19.00;99.90;;;;;;5014925;28;20187;-77
2022/07/11 06:03:30;;;;;;;5.53;3.53;;;19.00;99.90;;;;;;5014944;28;20180;-76
2022/07/11 06:05:56;;;;;;;3.53;3.13;;;19.00;99.90;;;;;;5014463;28;20675;-77
2022/07/11 06:08:40;;;;;;;5.80;3.67;;;19.00;99.90;;;;;;5014793;28;20291;-76
2022/07/11 06:11:06;;;;;;;5.67;3.60;;;19.00;99.90;;;;;;5014648;28;20218;-77
2022/07/11 06:13:32;;;;;;;5.07;3.80;;;19.00;99.90;;;;;;5014794;28;20419;-76
2022/07/11 06:15:58;;;;;;;7.43;3.57;;;19.10;99.90;;;;;;5014476;28;20184;-76
2022/07/11 06:18:24;;;;;;;5.47;3.67;;;19.10;99.90;;;;;;5014638;28;20232;-76
2022/07/11 06:20:50;;;;;;;8.67;6.00;;;19.10;99.90;;;;;;5014616;28;20430;-76
2022/07/11 06:23:17;;;;;;;12.20;4.77;;;19.10;99.90;;;;;;5014734;28;20411;-76
2022/07/11 06:25:42;;;;;;;5.30;4.30;;;19.20;99.90;;;;;;5014305;28;20510;-77
2022/07/11 06:28:08;;;;;;;9.90;5.37;;;19.30;99.90;;;;;;5014497;28;20546;-76
2022/07/11 06:30:37;;;;;;;10.97;7.00;;;19.30;99.90;;;;;;5014359;28;20204;-76
2022/07/11 06:33:03;;;;;;;7.83;5.93;;;19.30;99.90;;;;;;5014676;28;20462;-76
2022/07/11 06:35:30;;;;;;;9.07;7.10;;;19.40;99.90;;;;;;5013979;28;20415;-76
2022/07/11 06:37:56;;;;;;;7.60;6.90;;;19.60;99.90;;;;;;5013984;28;20431;-76
2022/07/11 06:40:23;;;;;;;9.67;5.60;;;19.70;99.90;;;;;;5014382;28;20473;-76
2022/07/11 06:42:49;;;;;;;9.03;5.40;;;19.80;99.90;;;;;;5014431;28;20407;-76
2022/07/11 06:45:15;;;;;;;12.40;6.90;;;19.90;99.90;;;;;;5014361;28;20426;-76
2022/07/11 06:47:41;;;;;;;7.40;6.13;;;19.90;99.90;;;;;;5014054;28;20801;-77
2022/07/11 06:50:08;;;;;;;8.90;6.00;;;19.90;99.90;;;;;;5014512;28;20437;-76
2022/07/11 06:52:34;;;;;;;8.97;5.60;;;20.10;99.90;;;;;;5014008;28;20539;-76
2022/07/11 06:54:59;;;;;;;7.67;5.70;;;20.20;99.90;;;;;;5014249;28;20426;-76
2022/07/11 06:57:25;;;;;;;9.93;7.07;;;20.30;99.90;;;;;;5013622;28;20436;-76
2022/07/11 06:59:51;;;;;;;8.90;6.70;;;20.20;99.90;;;;;;5014210;28;20656;-76
2022/07/11 07:02:17;;;;;;;7.30;6.10;;;20.20;99.90;;;;;;5014082;28;20423;-77
2022/07/11 07:04:43;;;;;;;8.70;6.33;;;20.30;99.90;;;;;;5014120;28;20207;-77
2022/07/11 07:07:08;;;;;;;7.67;5.80;;;20.20;99.90;;;;;;5013355;28;20223;-77
2022/07/11 07:09:34;;;;;;;9.40;7.03;;;20.40;99.90;;;;;;5014145;28;20188;-77
2022/07/11 07:12:00;;;;;;;9.90;6.07;;;20.50;99.90;;;;;;5013738;28;20204;-77
2022/07/11 07:14:26;;;;;;;7.60;5.30;;;20.50;99.90;;;;;;5013958;28;20231;-77
2022/07/11 07:16:52;;;;;;;10.73;6.13;;;20.60;99.90;;;;;;5013542;28;20179;-76
2022/07/11 07:19:18;;;;;;;7.87;6.23;;;20.70;99.90;;;;;;5013959;28;20419;-77
2022/07/11 07:21:44;;;;;;;7.00;6.00;;;20.70;99.90;;;;;;5013693;28;20922;-77
2022/07/11 07:24:10;;;;;;;6.97;5.73;;;20.70;99.90;;;;;;5013935;28;20275;-77
2022/07/11 07:26:35;;;;;;;11.97;6.40;;;20.60;99.90;;;;;;5013489;28;20184;-77
2022/07/11 07:29:01;;;;;;;15.10;6.13;;;20.50;99.90;;;;;;5013756;28;20257;-76
2022/07/11 07:31:27;;;;;;;9.10;6.50;;;20.50;99.90;;;;;;5013699;28;20204;-76
2022/07/11 07:33:53;;;;;;;9.53;7.50;;;20.50;99.90;;;;;;5013806;28;20191;-77
2022/07/11 07:36:19;;;;;;;8.40;7.50;;;20.40;99.90;;;;;;5013348;28;20696;-77
2022/07/11 07:38:48;;;;;;;8.43;7.43;;;20.40;99.90;;;;;;5013681;28;20530;-77
2022/07/11 07:41:15;;;;;;;11.40;7.90;;;20.30;99.90;;;;;;5013610;28;20188;-76
2022/07/11 07:43:41;;;;;;;10.70;7.03;;;20.30;99.90;;;;;;5013652;28;20422;-76
2022/07/11 07:46:11;;;;;;;9.60;7.23;;;20.40;99.90;;;;;;5014181;28;20429;-77
2022/07/11 07:48:40;;;;;;;8.73;7.17;;;20.50;99.90;;;;;;5017376;28;20438;-77
2022/07/11 07:51:09;;;;;;;9.10;6.07;;;20.60;99.90;;;;;;5017163;28;20841;-75
2022/07/11 07:53:35;;;;;;;7.00;5.20;;;20.70;99.90;;;;;;5017359;28;20415;-77
2022/07/11 07:56:01;;;;;;;6.90;4.93;;;20.80;99.90;;;;;;5017146;28;20426;-77
2022/07/11 07:58:27;;;;;;;6.67;4.73;;;20.80;99.90;;;;;;5017110;28;20514;-77
2022/07/11 08:03:37;;;;;;;6.73;4.00;;;21.00;99.90;;;;;;5035199;28;20194;-77
2022/07/11 08:06:02;;;;;;;6.23;4.90;;;20.90;99.90;;;;;;5016803;28;20434;-77
2022/07/11 08:08:28;;;;;;;7.40;4.60;;;20.80;99.90;;;;;;5016916;28;20204;-77
2022/07/11 08:10:54;;;;;;;9.23;4.43;;;20.80;99.90;;;;;;5016908;28;20207;-77
2022/07/11 08:13:20;;;;;;;6.83;4.43;;;20.80;99.90;;;;;;5016984;28;20176;-77
2022/07/11 08:15:46;;;;;;;5.40;3.80;;;20.80;99.90;;;;;;5016716;28;20528;-77
2022/07/11 08:18:12;;;;;;;7.03;3.80;;;20.90;99.90;;;;;;5016671;28;20192;-77
2022/07/11 08:20:38;;;;;;;5.10;3.83;;;21.00;99.90;;;;;;5016951;28;20787;-77
2022/07/11 08:23:04;;;;;;;4.27;3.13;;;21.00;99.90;;;;;;5016739;28;20423;-77
2022/07/11 08:25:30;;;;;;;4.37;3.47;;;21.10;99.90;;;;;;5016671;28;20184;-76
2022/07/11 08:27:56;;;;;;;4.10;3.13;;;21.20;99.90;;;;;;5016374;28;20497;-76
2022/07/11 08:30:22;;;;;;;4.73;3.10;;;21.30;99.90;;;;;;5016585;28;20466;-77
2022/07/11 08:32:48;;;;;;;4.43;2.70;;;21.40;99.90;;;;;;5016472;28;20423;-77
2022/07/11 08:35:15;;;;;;;4.53;2.83;;;21.40;99.90;;;;;;5017001;28;20229;-77
2022/07/11 08:37:41;;;;;;;4.57;2.93;;;21.40;99.90;;;;;;5016242;28;20550;-76
2022/07/11 08:40:08;;;;;;;7.53;3.10;;;21.30;99.90;;;;;;5016447;28;20408;-77
2022/07/11 08:42:40;;;;;;;5.80;2.83;;;21.40;99.90;;;;;;5016522;28;20565;-77
2022/07/11 08:45:07;;;;;;;5.10;3.00;;;21.40;99.90;;;;;;5016368;28;20472;-77
2022/07/11 08:47:35;;;;;;;5.60;3.17;;;21.40;99.90;;;;;;5015984;28;20920;-76
2022/07/11 08:50:01;;;;;;;3.67;2.50;;;21.40;99.90;;;;;;5016331;28;20438;-77
2022/07/11 08:52:28;;;;;;;3.97;2.60;;;21.40;99.90;;;;;;5016217;28;20462;-75
2022/07/11 08:54:55;;;;;;;3.37;2.30;;;21.60;99.90;;;;;;5016271;28;20789;-76
2022/07/11 08:57:21;;;;;;;5.37;2.57;;;21.70;99.90;;;;;;5015567;28;20446;-77
2022/07/11 08:59:48;;;;;;;5.13;2.37;;;21.80;99.90;;;;;;5016195;28;20915;-77
2022/07/11 09:02:15;;;;;;;4.57;1.90;;;22.00;99.90;;;;;;5016116;28;20682;-77
2022/07/11 09:04:41;;;;;;;4.13;2.30;;;22.20;99.90;;;;;;5016174;28;20415;-76
2022/07/11 09:07:06;;;;;;;4.00;2.53;;;22.40;99.90;;;;;;5015535;28;20525;-77
2022/07/11 09:09:35;;;;;;;3.77;2.30;;;22.50;99.90;;;;;;5016096;28;20267;-76
2022/07/11 09:12:01;;;;;;;6.07;2.70;;;22.70;99.90;;;;;;5015693;28;20274;-76
2022/07/11 09:14:30;;;;;;;4.77;2.63;;;22.90;99.90;;;;;;5015910;28;20946;-77
2022/07/11 09:16:58;;;;;;;3.77;2.93;;;23.10;99.90;;;;;;5015496;28;20183;-76
2022/07/11 09:19:25;;;;;;;5.37;3.13;;;23.00;99.90;;;;;;5015708;28;20423;-77
2022/07/11 09:25:24;;;;;;;3.07;2.40;;;22.90;99.90;;;;;;5002484;28;20937;-77
2022/07/11 09:27:54;;;;;;;4.87;2.70;;;22.80;99.90;;;;;;5015289;28;20438;-76
2022/07/11 09:30:28;;;;;;;4.27;2.63;;;22.90;99.90;;;;;;5015621;28;20423;-76
2022/07/11 09:33:02;;;;;;;4.07;2.87;;;23.00;99.90;;;;;;5015474;28;20426;-77
2022/07/11 09:35:32;;;;;;;4.13;2.60;;;23.20;99.90;;;;;;5015524;28;20423;-77
2022/07/11 09:37:58;;;;;;;3.50;2.80;;;23.40;99.90;;;;;;5015452;28;20774;-76
2022/07/11 09:40:25;;;;;;;3.43;2.40;;;23.50;99.90;;;;;;5015495;28;20426;-76
2022/07/11 09:42:52;;;;;;;3.37;2.57;;;23.50;99.90;;;;;;5018676;28;20179;-77
2022/07/11 09:45:20;;;;;;;4.07;2.50;;;23.40;99.90;;;;;;5015291;28;20418;-77
2022/07/11 09:47:54;;;;;;;4.67;2.43;;;23.50;99.90;;;;;;5015079;28;20430;-77
2022/07/11 09:50:24;;;;;;;2.90;2.00;;;23.60;99.90;;;;;;5015168;28;20446;-77
2022/07/11 09:53:11;;;;;;;3.00;2.10;;;23.40;99.90;;;;;;5015207;28;20419;-77
2022/07/11 09:55:39;;;;;;;5.20;2.53;;;23.60;99.90;;;;;;5014878;28;20439;-77
2022/07/11 09:58:10;;;;;;;3.23;2.10;;;24.00;99.90;;;;;;5014689;28;20467;-77
2022/07/11 10:00:39;;;;;;;3.90;1.63;;;24.30;99.90;;;;;;5015054;28;20430;-77
2022/07/11 10:03:10;;;;;;;6.07;3.80;;;24.40;99.90;;;;;;5014957;28;20427;-77
2022/07/11 10:08:05;;;;;;;4.03;1.87;;;24.30;99.90;;;;;;5055088;28;20482;-83
2022/07/11 10:10:33;;;;;;;3.40;2.10;;;24.20;99.90;;;;;;5038074;28;20824;-84
2022/07/11 10:13:00;;;;;;;5.30;2.20;;;24.20;99.90;;;;;;5038850;28;20770;-82
2022/07/11 10:15:33;;;;;;;2.47;1.40;;;23.90;99.90;;;;;;5038012;28;20824;-80
2022/07/11 10:18:26;;;;;;;3.80;1.87;;;23.80;99.90;;;;;;5037913;28;20963;-80
2022/07/11 10:21:22;;;;;;;3.13;1.77;;;23.70;99.90;;;;;;5037548;28;20422;-80
2022/07/11 10:24:00;;;;;;;4.13;2.40;;;23.50;99.90;;;;;;5037614;28;20799;-82
2022/07/11 10:26:54;;;;;;;3.03;2.07;;;23.60;99.90;;;;;;5037448;28;20935;-80
2022/07/11 10:29:29;;;;;;;3.67;2.03;;;23.60;99.90;;;;;;5037370;28;20432;-81
2022/07/11 10:32:09;;;;;;;4.60;1.80;;;23.50;99.90;;;;;;5037073;28;20825;-80
2022/07/11 10:34:35;;;;;;;3.63;2.17;;;23.50;99.90;;;;;;5036533;28;20422;-81
2022/07/11 10:37:05;;;;;;;3.00;1.77;;;23.50;99.90;;;;;;5036658;28;20953;-80
2022/07/11 10:39:57;;;;;;;3.43;1.97;;;23.40;99.90;;;;;;5036502;28;20418;-80
2022/07/11 10:42:38;;;;;;;5.03;1.90;;;23.30;99.90;;;;;;5036747;28;20444;-80
2022/07/11 10:45:11;;;;;;;2.67;1.77;;;23.30;99.90;;;;;;5036280;28;20410;-80
2022/07/11 10:47:44;;;;;;;2.97;1.73;;;23.10;99.90;;;;;;5035822;28;20449;-80
2022/07/11 10:50:48;;;;;;;4.20;1.87;;;23.00;99.90;;;;;;5035929;28;20437;-80
2022/07/11 10:53:22;;;;;;;4.97;1.97;;;22.90;99.90;;;;;;5023188;28;20436;-80
2022/07/11 10:56:03;;;;;;;3.80;2.60;;;22.80;99.90;;;;;;5036076;28;20665;-81
2022/07/11 10:58:29;;;;;;;4.07;2.77;;;22.90;99.90;;;;;;5035836;28;20445;-80
2022/07/11 11:01:15;;;;;;;4.30;2.90;;;22.90;99.90;;;;;;5035632;28;20411;-80
2022/07/11 11:03:43;;;;;;;3.50;2.90;;;22.90;99.90;;;;;;5035288;28;20422;-80
2022/07/11 11:06:10;;;;;;;3.80;3.00;;;22.90;99.90;;;;;;5035493;28;20436;-80
2022/07/11 11:08:42;;;;;;;6.03;4.20;;;22.90;99.90;;;;;;5035677;28;20446;-80
2022/07/11 11:11:35;;;;;;;5.83;4.40;;;22.90;99.90;;;;;;5035913;28;20450;-80
2022/07/11 11:14:16;;;;;;;4.17;3.77;;;23.00;99.90;;;;;;5035514;28;20463;-80
2022/07/11 11:16:42;;;;;;;3.83;3.13;;;22.90;99.90;;;;;;5035295;28;20421;-80
2022/07/11 11:19:28;;;;;;;4.27;2.63;;;22.90;99.90;;;;;;5034787;28;20411;-80
2022/07/11 11:22:03;;;;;;;3.67;3.00;;;22.80;99.90;;;;;;5038730;28;20175;-79
2022/07/11 11:24:29;;;;;;;3.80;2.33;;;22.90;99.90;;;;;;5038710;28;20417;-80
2022/07/11 11:26:59;;;;;;;4.10;2.40;;;22.80;99.90;;;;;;5046593;28;20987;-81
2022/07/11 11:29:28;;;;;;;3.33;2.70;;;22.70;99.90;;;;;;5040669;28;20418;-80
2022/07/11 11:31:58;;;;;;;3.67;2.50;;;22.70;99.90;;;;;;5049992;28;20462;-82
2022/07/11 11:34:24;;;;;;;2.43;1.70;;;22.70;99.90;;;;;;5057635;28;20943;-82
2022/07/11 11:37:00;;;;;;;4.27;3.10;;;22.70;99.90;;;;;;5038131;28;20908;-82
2022/07/11 11:39:28;;;;;;;4.30;3.30;;;22.70;99.90;;;;;;5038564;28;20441;-83
2022/07/11 11:42:04;;;;;;;5.90;4.27;;;22.90;99.90;;;;;;5038592;28;20505;-82
2022/07/11 11:44:31;;;;;;;6.23;4.07;;;23.30;99.90;;;;;;5038406;28;20418;-82
2022/07/11 11:46:57;;;;;;;4.57;3.20;;;23.60;99.90;;;;;;5038243;28;20418;-81
2022/07/11 11:49:23;;;;;;;4.67;2.77;;;23.90;99.90;;;;;;5037961;28;20807;-82
2022/07/11 11:51:49;;;;;;;4.50;2.47;;;24.10;99.90;;;;;;5037359;28;20212;-82
2022/07/11 11:54:23;;;;;;;5.33;2.47;;;24.30;99.90;;;;;;5037504;28;20248;-82
2022/07/11 11:56:49;;;;;;;3.40;2.70;;;24.50;99.90;;;;;;5036931;28;20452;-81
2022/07/11 11:59:15;;;;;;;4.20;3.67;;;24.40;99.90;;;;;;5037109;28;20410;-82
2022/07/11 12:01:51;;;;;;;5.10;4.60;;;24.30;99.90;;;;;;5037617;28;20429;-82
2022/07/11 12:04:17;;;;;;;5.60;4.57;;;24.50;99.90;;;;;;5037324;28;20424;-82
2022/07/11 12:06:46;;;;;;;6.50;5.20;;;24.60;99.90;;;;;;5037098;28;20446;-83
2022/07/11 12:09:13;;;;;;;9.90;5.90;;;24.70;99.90;;;;;;5037516;28;20472;-79
2022/07/11 12:11:40;;;;;;;8.80;6.00;;;24.70;99.90;;;;;;5037613;28;20473;-80
2022/07/11 12:14:08;;;;;;;8.20;7.50;;;24.60;99.90;;;;;;5037113;28;20955;-79
2022/07/11 12:16:39;;;;;;;8.00;7.20;;;24.40;99.90;;;;;;5037126;28;20510;-82
2022/07/11 12:19:08;;;;;;;7.73;7.03;;;24.20;99.90;;;;;;5037122;28;20959;-83
2022/07/11 12:21:36;;;;;;;8.97;8.17;;;24.10;99.90;;;;;;5038946;28;20426;-83
2022/07/11 12:24:04;;;;;;;8.47;7.40;;;24.20;99.90;;;;;;5042254;28;20422;-83
2022/07/11 12:26:33;;;;;;;9.00;8.10;;;24.20;99.90;;;;;;5042318;28;20505;-83
2022/07/11 12:29:39;;;;;;;10.17;8.53;;;24.10;99.90;;;;;;5042012;28;20430;-84
2022/07/11 12:32:12;;;;;;;7.30;6.60;;;24.10;99.90;;;;;;5012212;28;20911;-83
2022/07/11 12:34:38;;;;;;;7.37;6.67;;;24.10;99.90;;;;;;5041996;28;20425;-84
2022/07/11 12:37:16;;;;;;;7.73;6.23;;;24.10;99.90;;;;;;5040773;28;20438;-83
2022/07/11 12:40:00;;;;;;;9.60;6.90;;;24.10;99.90;;;;;;5041759;28;20183;-82
2022/07/11 12:42:32;;;;;;;5.03;3.27;;;24.20;99.90;;;;;;5040986;28;20446;-83
2022/07/11 12:45:07;;;;;;;3.60;2.83;;;24.10;99.90;;;;;;5040786;28;20419;-82
2022/07/11 12:47:39;;;;;;;3.37;2.50;;;23.90;99.90;;;;;;5039938;28;20511;-82
2022/07/11 12:50:16;;;;;;;5.13;3.50;;;23.80;99.90;;;;;;5040082;28;20552;-82
2022/07/11 12:52:47;;;;;;;4.87;3.93;;;23.80;99.90;;;;;;5040166;28;20566;-82
2022/07/11 12:55:29;;;;;;;4.63;2.60;;;23.90;99.90;;;;;;5039653;28;20859;-83
2022/07/11 12:58:14;;;;;;;4.70;3.83;;;24.00;99.90;;;;;;5039523;28;20465;-82
2022/07/11 13:00:56;;;;;;;4.80;3.47;;;24.00;99.90;;;;;;5038320;28;20418;-82
2022/07/11 13:03:48;;;;;;;5.07;3.50;;;24.00;99.90;;;;;;5039581;28;20449;-83